West Vancouver, British Columbia

5:36 AM PST on February 12, 2016 (GMT -0800)
Pemberton Heights | | Change Station
CLOSE
Current Station
Personal Weather Station
Location: North Vancouver, BRITISH COLUMBIA
Elevation: 161 ft
Nearby Weather Stations

Elev 161 ft 49.33 °N, 123.11 °W | Updated 4 minutes ago

Rain
Rain
48.9 °F
Feels Like 49 °F
N
0.0
Wind Variable Wind from NNE
Gusts 2.0 mph

Today is forecast to be nearly the same temperature as yesterday.

Today
High -- | Low -- °F
--% Chance of Precip.
Yesterday
High -- | Low -- °F
Precip. -- in
Pressure 30.04 in
Visibility 15.0 miles
Clouds Few 800 ft
Mostly Cloudy 1200 ft
Overcast 3800 ft
Windchill 49 °F
Dew Point 48 °F
Humidity 98%
Rainfall 0.49 in
Snow Depth Not available.
7:27 AM 5:26 PM
Waxing Crescent, 20% visible
SPECI CYVR 121314Z 09008KT 15SM FEW008 BKN012 OVC038 09/08 A3003 RMK ST2SC5SC1 SLP170
Pressure 30.04 in
Visibility 15.0 miles
Clouds Few 800 ft
Mostly Cloudy 1200 ft
Overcast 3800 ft
Windchill 49 °F
Dew Point 48 °F
Humidity 98%
Rainfall 0.49 in
Snow Depth Not available.
7:27 AM 5:26 PM
Waxing Crescent, 20% visible
SPECI CYVR 121314Z 09008KT 15SM FEW008 BKN012 OVC038 09/08 A3003 RMK ST2SC5SC1 SLP170

10-Day Weather Forecast

Almanac

Astronomy

Feb. 12, 2016 Rise Set
Actual Time
Civil Twilight
Nautical Twilight
Astronomical Twilight
Moon
Length of Visible Light
Length of Day
Tomorrow will be .
, % of the Moon is Illuminated

Today's Extremes

Country Highs Country Lows

Community

WunderPhotos

Upload Photos

1,892,312 photos uploaded!

WunderBlog® & News

Nearby

Air Quality

  Air Quality AQ Index Pollutant
Not available.

Snow Depth

Station Depth Elevation

Earthquake Activity

City Distance Mag. Time & Date
Minimum magnitude displayed is 2.5.

Coastal Water Temperatures

Place Temperature

Stations

Nearby Weather Stations

Station Location Temp. Windchill Dew Point Humidity Wind Precip. Elev Updated Type
                   

Watches & Warnings

There are currently no watches in effect.